createdAt,value
2019-03-11T00:02:23.439Z,94713.95
2019-03-11T00:04:52.130Z,94718.13
2019-03-11T00:07:19.625Z,94722.51
2019-03-11T00:09:47.211Z,94718.34
2019-03-11T00:12:14.715Z,94721.82
2019-03-11T00:14:42.220Z,94724.14
2019-03-11T00:17:09.788Z,94716.52
2019-03-11T00:19:37.802Z,94725.16
2019-03-11T00:22:05.419Z,94725.55
2019-03-11T00:24:32.858Z,94717.34
2019-03-11T00:27:00.338Z,94716.67
2019-03-11T00:29:27.769Z,94714.62
2019-03-11T00:31:55.352Z,94713.05
2019-03-11T00:34:22.789Z,94718.84
2019-03-11T00:36:50.278Z,94719.59
2019-03-11T00:39:17.734Z,94706.60
2019-03-11T00:41:45.275Z,94708.23
2019-03-11T00:44:12.723Z,94712.16
2019-03-11T00:46:40.238Z,94718.66
2019-03-11T00:49:07.733Z,94710.82
2019-03-11T00:51:35.274Z,94713.38
2019-03-11T00:54:02.795Z,94709.84
2019-03-11T00:59:13.175Z,94710.71
2019-03-11T01:01:40.656Z,94716.48
2019-03-11T01:04:08.087Z,94719.25
2019-03-11T01:06:35.685Z,94716.80
2019-03-11T01:09:04.257Z,94712.65
2019-03-11T01:11:31.773Z,94727.50
2019-03-11T01:13:59.318Z,94728.88
2019-03-11T01:16:26.791Z,94727.98
2019-03-11T01:18:54.230Z,94727.98
2019-03-11T01:21:21.744Z,94725.54
2019-03-11T01:23:49.239Z,94729.61
2019-03-11T01:26:16.871Z,94719.23
2019-03-11T01:28:44.405Z,94723.91
2019-03-11T01:31:11.912Z,94726.47
2019-03-11T01:33:39.437Z,94725.50
2019-03-11T01:36:06.875Z,94723.59
2019-03-11T01:38:34.332Z,94722.03
2019-03-11T01:41:01.780Z,94723.77
2019-03-11T01:43:29.290Z,94718.69
2019-03-11T01:45:56.861Z,94727.40
2019-03-11T01:48:24.427Z,94727.56
2019-03-11T01:50:51.816Z,94720.95
2019-03-11T01:53:19.315Z,94721.27
2019-03-11T01:55:46.795Z,94716.31
2019-03-11T01:58:14.294Z,94716.90
2019-03-11T02:00:41.728Z,94707.43
2019-03-11T02:03:09.264Z,94710.58
2019-03-11T02:05:36.879Z,94706.38
2019-03-11T02:08:04.551Z,94701.69
2019-03-11T02:10:32.008Z,94706.50
2019-03-11T02:12:59.593Z,94703.66
2019-03-11T02:15:27.072Z,94702.44
2019-03-11T02:17:54.581Z,94711.45
2019-03-11T02:20:22.042Z,94709.61
2019-03-11T02:22:49.706Z,94703.61
2019-03-11T02:25:17.299Z,94704.96
2019-03-11T02:27:44.762Z,94713.52
2019-03-11T02:30:12.486Z,94713.97
2019-03-11T02:32:39.971Z,94716.48
2019-03-11T02:35:07.791Z,94711.98
2019-03-11T02:37:35.264Z,94703.29
2019-03-11T02:40:02.819Z,94713.27
2019-03-11T02:42:30.346Z,94710.23
2019-03-11T02:44:57.811Z,94708.88
2019-03-11T02:47:25.272Z,94715.22
2019-03-11T02:49:52.760Z,94711.61
2019-03-11T02:52:20.334Z,94719.19
2019-03-11T02:54:50.058Z,94723.07
2019-03-11T02:57:17.546Z,94724.30
2019-03-11T02:59:45.091Z,94732.73
2019-03-11T03:02:50.379Z,94733.95
2019-03-11T03:05:28.101Z,94741.78
2019-03-11T03:07:55.579Z,94738.48
2019-03-11T03:10:23.350Z,94736.33
2019-03-11T03:12:50.782Z,94736.34
2019-03-11T03:15:18.330Z,94739.08
2019-03-11T03:17:45.748Z,94736.96
2019-03-11T03:20:13.571Z,94746.88
2019-03-11T03:22:41.387Z,94741.92
2019-03-11T03:25:09.829Z,94743.27
2019-03-11T03:27:39.489Z,94743.44
2019-03-11T03:30:10.427Z,94746.28
2019-03-11T03:32:38.058Z,94737.72
2019-03-11T03:35:05.837Z,94740.56
2019-03-11T03:37:33.688Z,94753.50
2019-03-11T03:40:01.152Z,94753.02
2019-03-11T03:42:28.687Z,94756.34
2019-03-11T03:45:25.578Z,94759.66
2019-03-11T03:47:53.311Z,94771.83
2019-03-11T03:50:21.500Z,94765.37
2019-03-11T03:52:49.113Z,94767.80
2019-03-11T03:55:16.631Z,94769.89
2019-03-11T03:57:44.250Z,94781.30
2019-03-11T04:00:11.907Z,94775.41
2019-03-11T04:02:39.373Z,94782.20
2019-03-11T04:05:08.064Z,94776.48
2019-03-11T04:07:35.635Z,94777.69
2019-03-11T04:10:03.993Z,94785.20
2019-03-11T04:12:31.586Z,94782.05
2019-03-11T04:14:59.366Z,94794.22
2019-03-11T04:17:26.866Z,94788.06
2019-03-11T04:19:54.250Z,94800.52
2019-03-11T04:22:21.864Z,94795.25
2019-03-11T04:24:49.450Z,94801.53
2019-03-11T04:27:17.418Z,94806.04
2019-03-11T04:29:44.967Z,94807.84
2019-03-11T04:32:12.461Z,94777.77
2019-03-11T04:34:39.942Z,94797.75
2019-03-11T04:37:07.402Z,94804.15
2019-03-11T04:39:34.848Z,94803.25
2019-03-11T04:42:02.362Z,94801.75
2019-03-11T04:44:29.949Z,94815.20
2019-03-11T04:46:57.406Z,94804.89
2019-03-11T04:49:24.934Z,94810.13
2019-03-11T04:51:52.346Z,94804.63
2019-03-11T04:54:19.871Z,94811.30
2019-03-11T04:56:47.425Z,94799.27
2019-03-11T04:59:14.916Z,94816.23
2019-03-11T05:01:43.009Z,94812.50
2019-03-11T05:04:10.433Z,94805.64
2019-03-11T05:06:37.941Z,94813.05
2019-03-11T05:09:05.804Z,94817.58
2019-03-11T05:11:33.301Z,94811.44
2019-03-11T05:14:01.107Z,94821.80
2019-03-11T05:16:28.737Z,94696.34
2019-03-11T05:18:56.314Z,94812.53
2019-03-11T05:21:23.751Z,94820.73
2019-03-11T05:23:51.301Z,94808.12
2019-03-11T05:26:20.046Z,94806.75
2019-03-11T05:28:49.371Z,94806.06
2019-03-11T05:31:16.950Z,94796.91
2019-03-11T05:33:44.570Z,94806.38
2019-03-11T05:36:12.230Z,94803.09
2019-03-11T05:38:39.606Z,94811.03
2019-03-11T05:41:08.841Z,94800.83
2019-03-11T05:43:37.931Z,94797.34
2019-03-11T05:46:05.430Z,94809.79
2019-03-11T05:48:33.042Z,94803.37
2019-03-11T05:51:00.533Z,94801.09
2019-03-11T05:53:28.049Z,94801.56
2019-03-11T05:55:55.569Z,94811.17
2019-03-11T05:58:23.216Z,94804.69
2019-03-11T06:00:50.729Z,94807.08
2019-03-11T06:03:18.230Z,94801.89
2019-03-11T06:05:45.723Z,94806.96
2019-03-11T06:08:22.758Z,94798.80
2019-03-11T06:10:50.354Z,94802.73
2019-03-11T06:13:17.856Z,94815.28
2019-03-11T06:15:45.388Z,94804.05
2019-03-11T06:18:13.575Z,94812.77
2019-03-11T06:21:06.837Z,94814.70
2019-03-11T06:23:34.323Z,94823.86
2019-03-11T06:26:01.810Z,94835.31
2019-03-11T06:28:29.223Z,94824.64
2019-03-11T06:30:56.786Z,94818.02
2019-03-11T06:33:24.364Z,94819.23
2019-03-11T06:35:51.959Z,94819.17
2019-03-11T06:38:19.481Z,94824.72
2019-03-11T06:40:46.992Z,94818.48
2019-03-11T06:43:14.492Z,94816.39
2019-03-11T06:45:41.973Z,94805.52
2019-03-11T06:48:09.470Z,94813.79
2019-03-11T06:50:37.032Z,94813.24
2019-03-11T06:53:04.431Z,94815.80
2019-03-11T06:55:31.990Z,94804.86
2019-03-11T06:58:00.769Z,94807.58
2019-03-11T07:00:28.292Z,94811.83
2019-03-11T07:02:55.889Z,94805.03
2019-03-11T07:05:23.322Z,94805.45
2019-03-11T07:07:50.855Z,94789.93
2019-03-11T07:10:18.367Z,94792.89
2019-03-11T07:12:45.780Z,94786.22
2019-03-11T07:15:13.549Z,94787.92
2019-03-11T07:17:41.167Z,94785.89
2019-03-11T07:20:10.189Z,94788.42
2019-03-11T07:22:37.733Z,94780.87
2019-03-11T07:25:05.682Z,94778.36
2019-03-11T07:27:33.118Z,94764.66
2019-03-11T07:30:00.586Z,94770.77
2019-03-11T07:32:28.355Z,94766.41
2019-03-11T07:34:55.775Z,94764.66
2019-03-11T07:37:23.377Z,94758.69
2019-03-11T07:39:51.024Z,94764.93
2019-03-11T07:42:20.939Z,94766.00
2019-03-11T07:44:48.471Z,94759.03
2019-03-11T07:47:15.979Z,94755.49
2019-03-11T07:49:43.412Z,94749.28
2019-03-11T07:52:10.873Z,94754.06
2019-03-11T07:54:38.305Z,94744.96
2019-03-11T07:57:06.448Z,94749.73
2019-03-11T07:59:34.544Z,94746.92
2019-03-11T08:02:02.171Z,94746.32
2019-03-11T08:04:29.817Z,94739.92
2019-03-11T08:06:57.398Z,94741.53
2019-03-11T08:09:24.803Z,94730.32
2019-03-11T08:11:52.312Z,94731.16
2019-03-11T08:14:19.878Z,94733.30
2019-03-11T08:16:47.275Z,94731.72
2019-03-11T08:19:14.951Z,94732.66
2019-03-11T08:21:42.591Z,94728.50
2019-03-11T08:24:10.184Z,94719.86
2019-03-11T08:26:39.002Z,94725.80
2019-03-11T08:29:06.520Z,94719.53
2019-03-11T08:31:34.074Z,94703.56
2019-03-11T08:34:01.871Z,94718.32
2019-03-11T08:36:29.374Z,94705.30
2019-03-11T08:38:56.856Z,94700.80
2019-03-11T08:41:24.415Z,94704.53
2019-03-11T08:43:51.886Z,94696.14
2019-03-11T08:46:19.456Z,94681.29
2019-03-11T08:48:46.968Z,94689.67
2019-03-11T08:51:14.389Z,94673.59
2019-03-11T08:53:42.010Z,94672.67
2019-03-11T08:56:09.527Z,94670.64
2019-03-11T08:58:36.925Z,94657.66
2019-03-11T09:01:04.516Z,94653.88
2019-03-11T09:03:32.092Z,94659.94
2019-03-11T09:05:59.649Z,94657.42
2019-03-11T09:08:27.100Z,94645.25
2019-03-11T09:10:55.027Z,94629.79
2019-03-11T09:13:22.559Z,94633.20
2019-03-11T09:15:52.779Z,94626.95
2019-03-11T09:18:19.721Z,94617.78
2019-03-11T09:20:47.271Z,94610.80
2019-03-11T09:23:14.806Z,94608.91
2019-03-11T09:25:42.334Z,94617.67
2019-03-11T09:28:09.822Z,94617.63
2019-03-11T09:30:37.325Z,94612.48
2019-03-11T09:33:04.859Z,94606.20
2019-03-11T09:35:32.424Z,94610.06
2019-03-11T09:38:00.027Z,94613.54
2019-03-11T09:40:27.570Z,94600.80
2019-03-11T09:42:54.995Z,94603.51
2019-03-11T09:45:24.337Z,94596.37
2019-03-11T09:47:52.001Z,94602.63
2019-03-11T09:50:19.616Z,94593.23
2019-03-11T09:52:47.118Z,94589.85
2019-03-11T09:55:14.810Z,94596.47
2019-03-11T09:57:42.417Z,94599.39
2019-03-11T10:00:13.885Z,94594.48
2019-03-11T10:02:51.727Z,94595.80
2019-03-11T10:05:11.137Z,94586.52
2019-03-11T10:07:38.713Z,94588.63
2019-03-11T10:10:08.034Z,94587.41
2019-03-11T10:12:35.512Z,94582.86
2019-03-11T10:15:03.559Z,94587.77
2019-03-11T10:17:31.096Z,94585.56
2019-03-11T10:19:58.650Z,94582.72
2019-03-11T10:22:26.301Z,94580.34
2019-03-11T10:24:53.825Z,94577.73
2019-03-11T10:27:21.420Z,94571.86
2019-03-11T10:29:48.932Z,94570.43
2019-03-11T10:32:16.394Z,94563.61
2019-03-11T10:34:43.913Z,94569.20
2019-03-11T10:37:11.450Z,94567.45
2019-03-11T10:39:38.963Z,94561.00
2019-03-11T10:42:06.346Z,94570.21
2019-03-11T10:44:33.815Z,94561.04
2019-03-11T10:47:01.371Z,94558.02
2019-03-11T10:49:29.847Z,94555.52
2019-03-11T10:51:57.354Z,94551.60
2019-03-11T10:54:24.801Z,94547.88
2019-03-11T10:56:52.329Z,94547.22
2019-03-11T10:59:19.974Z,94552.30
2019-03-11T11:01:47.639Z,94559.49
2019-03-11T11:04:15.188Z,94551.20
2019-03-11T11:06:42.663Z,94555.58
2019-03-11T11:09:10.578Z,94544.25
2019-03-11T11:11:38.100Z,94546.44
2019-03-11T11:14:05.559Z,94546.81
2019-03-11T11:16:33.128Z,94542.51
2019-03-11T11:19:00.670Z,94535.31
2019-03-11T11:21:28.228Z,94536.56
2019-03-11T11:23:55.764Z,94524.39
2019-03-11T11:26:23.288Z,94514.42
2019-03-11T11:28:50.910Z,94520.33
2019-03-11T11:31:18.352Z,94509.11
2019-03-11T11:33:45.853Z,94504.47
2019-03-11T11:36:13.360Z,94505.33
2019-03-11T11:38:40.800Z,94493.42
2019-03-11T11:41:08.265Z,94492.47
2019-03-11T11:43:35.757Z,94486.97
2019-03-11T11:46:03.349Z,94481.73
2019-03-11T11:48:30.817Z,94487.97
2019-03-11T11:50:58.330Z,94476.42
2019-03-11T11:53:25.831Z,94479.91
2019-03-11T11:55:57.545Z,94466.54
2019-03-11T11:58:22.810Z,94470.30
2019-03-11T12:00:50.795Z,94462.56
2019-03-11T12:03:18.904Z,94449.31
2019-03-11T12:05:46.312Z,94454.50
2019-03-11T12:08:14.016Z,94438.70
2019-03-11T12:10:41.517Z,94429.56
2019-03-11T12:13:09.261Z,94432.91
2019-03-11T12:15:36.859Z,94428.11
2019-03-11T12:18:04.720Z,94421.50
2019-03-11T12:20:32.438Z,94410.58
2019-03-11T12:23:00.102Z,94409.81
2019-03-11T12:25:27.768Z,94413.16
2019-03-11T12:27:57.999Z,94411.12
2019-03-11T12:30:25.561Z,94407.47
2019-03-11T12:32:53.374Z,94401.72
2019-03-11T12:35:21.017Z,94396.02
2019-03-11T12:37:48.639Z,94399.61
2019-03-11T12:40:16.360Z,94393.09
2019-03-11T12:42:44.036Z,94393.59
2019-03-11T12:45:12.457Z,94389.73
2019-03-11T12:47:39.987Z,94379.67
2019-03-11T12:50:10.887Z,94384.11
2019-03-11T12:52:38.370Z,94365.95
2019-03-11T12:55:05.949Z,94369.52
2019-03-11T12:57:33.399Z,94366.33
2019-03-11T13:00:00.906Z,94367.63
2019-03-11T13:02:28.400Z,94367.59
2019-03-11T13:04:56.053Z,94358.08
2019-03-11T13:07:23.583Z,94365.25
2019-03-11T13:09:50.966Z,94353.91
2019-03-11T13:12:18.462Z,94357.22
2019-03-11T13:14:45.947Z,94347.09
2019-03-11T13:17:13.402Z,94337.98
2019-03-11T13:19:40.886Z,94339.15
2019-03-11T13:22:08.391Z,94333.89
2019-03-11T13:24:35.881Z,94333.42
2019-03-11T13:27:03.471Z,94329.89
2019-03-11T13:29:30.967Z,94327.41
2019-03-11T13:31:58.414Z,94320.08
2019-03-11T13:34:26.033Z,94322.77
2019-03-11T13:36:53.572Z,94322.09
2019-03-11T13:39:21.081Z,94320.34
2019-03-11T13:41:48.632Z,94308.67
2019-03-11T13:44:16.106Z,94315.22
2019-03-11T13:46:43.826Z,94310.10
2019-03-11T13:49:11.455Z,94311.05
2019-03-11T13:51:39.023Z,94302.81
2019-03-11T13:54:06.723Z,94297.28
2019-03-11T13:56:34.275Z,94294.84
2019-03-11T13:59:01.734Z,94292.16
2019-03-11T14:01:29.213Z,94282.48
2019-03-11T14:03:56.675Z,94277.70
2019-03-11T14:06:24.193Z,94269.43
2019-03-11T14:08:51.634Z,94265.52
2019-03-11T14:11:19.192Z,94259.34
2019-03-11T14:13:46.707Z,94258.80
2019-03-11T14:16:14.338Z,94257.98
2019-03-11T14:18:41.808Z,94255.91
2019-03-11T14:21:09.986Z,94261.22
2019-03-11T14:23:37.694Z,94262.03
2019-03-11T14:26:05.167Z,94260.72
2019-03-11T14:28:32.727Z,94262.15
2019-03-11T14:31:00.235Z,94245.18
2019-03-11T14:33:27.695Z,94248.57
2019-03-11T14:35:55.323Z,94252.02
2019-03-11T14:38:22.819Z,94256.27
2019-03-11T14:40:50.358Z,94254.15
2019-03-11T14:43:17.916Z,94247.22
2019-03-11T14:45:46.953Z,94256.33
2019-03-11T14:48:14.423Z,94258.67
2019-03-11T14:50:44.543Z,94250.70
2019-03-11T14:53:12.123Z,94254.55
2019-03-11T14:55:39.599Z,94254.07
2019-03-11T14:58:07.160Z,94253.13
2019-03-11T15:00:34.824Z,94258.33
2019-03-11T15:03:02.338Z,94259.86
2019-03-11T15:05:29.927Z,94257.01
2019-03-11T15:07:57.491Z,94260.71
2019-03-11T15:10:24.942Z,94245.11
2019-03-11T15:12:52.436Z,94257.98
2019-03-11T15:15:20.103Z,94246.33
2019-03-11T15:17:47.756Z,94246.72
2019-03-11T15:20:15.407Z,94246.22
2019-03-11T15:22:43.019Z,94243.82
2019-03-11T15:25:10.848Z,94239.41
2019-03-11T15:27:38.473Z,94241.64
2019-03-11T15:30:07.394Z,94240.55
2019-03-11T15:32:34.938Z,94248.23
2019-03-11T15:35:02.831Z,94255.33
2019-03-11T15:37:30.376Z,94250.22
2019-03-11T15:39:57.907Z,94266.69
2019-03-11T15:42:25.816Z,94268.52
2019-03-11T15:44:53.257Z,94264.00
2019-03-11T15:47:20.816Z,94271.79
2019-03-11T15:49:48.295Z,94271.33
2019-03-11T15:52:15.782Z,94257.81
2019-03-11T15:54:43.267Z,94271.13
2019-03-11T15:57:10.778Z,94263.77
2019-03-11T15:59:38.264Z,94264.30
2019-03-11T16:02:06.371Z,94280.17
2019-03-11T16:04:33.973Z,94280.27
2019-03-11T16:07:01.360Z,94294.98
2019-03-11T16:09:28.951Z,94295.86
2019-03-11T16:11:56.918Z,94290.70
2019-03-11T16:14:24.379Z,94297.13
2019-03-11T16:16:51.883Z,94284.52
2019-03-11T16:19:19.368Z,94285.05
2019-03-11T16:21:46.886Z,94273.12
2019-03-11T16:24:14.676Z,94272.75
2019-03-11T16:26:42.167Z,94282.61
2019-03-11T16:29:09.806Z,94297.11
2019-03-11T16:31:37.445Z,94292.50
2019-03-11T16:34:05.095Z,94300.59
2019-03-11T16:36:32.678Z,94300.98
2019-03-11T16:39:00.617Z,94299.07
2019-03-11T16:41:28.725Z,94296.12
2019-03-11T16:43:56.424Z,94309.43
2019-03-11T16:46:24.185Z,94296.18
2019-03-11T16:48:51.597Z,94302.61
2019-03-11T16:51:19.900Z,94303.59
2019-03-11T16:53:47.419Z,94299.64
2019-03-11T16:56:15.042Z,94294.59
2019-03-11T16:58:42.491Z,94288.70
2019-03-11T17:01:11.006Z,94286.41
2019-03-11T17:03:38.640Z,94289.68
2019-03-11T17:06:06.211Z,94310.72
2019-03-11T17:08:33.703Z,94296.69
2019-03-11T17:11:01.200Z,94294.03
2019-03-11T17:13:28.778Z,94294.06
2019-03-11T17:15:56.301Z,94295.34
2019-03-11T17:18:23.976Z,94306.59
2019-03-11T17:20:51.625Z,94307.94
2019-03-11T17:23:19.167Z,94320.80
2019-03-11T17:25:46.623Z,94325.87
2019-03-11T17:28:14.099Z,94327.00
2019-03-11T17:30:41.554Z,94325.63
2019-03-11T17:33:09.152Z,94329.16
2019-03-11T17:35:37.844Z,94327.19
2019-03-11T17:38:06.671Z,94338.67
2019-03-11T17:40:35.027Z,94339.64
2019-03-11T17:43:02.822Z,94328.55
2019-03-11T17:45:30.764Z,94339.45
2019-03-11T17:47:58.454Z,94346.95
2019-03-11T17:50:26.132Z,94331.05
2019-03-11T17:52:53.861Z,94338.59
2019-03-11T17:55:21.468Z,94341.33
2019-03-11T17:57:49.239Z,94336.97
2019-03-11T18:00:25.375Z,94340.84
2019-03-11T18:02:53.666Z,94345.76
2019-03-11T18:05:21.509Z,94351.72
2019-03-11T18:07:49.262Z,94349.31
2019-03-11T18:10:16.977Z,94359.09
2019-03-11T18:12:44.605Z,94354.31
2019-03-11T18:15:13.136Z,94353.85
2019-03-11T18:17:40.899Z,94358.80
2019-03-11T18:20:10.550Z,94362.13
2019-03-11T18:22:38.136Z,94367.78
2019-03-11T18:25:05.753Z,94363.86
2019-03-11T18:27:33.313Z,94364.74
2019-03-11T18:30:01.157Z,94364.98
2019-03-11T18:32:30.807Z,94363.38
2019-03-11T18:35:00.408Z,94357.55
2019-03-11T18:37:27.876Z,94357.86
2019-03-11T18:39:55.429Z,94363.98
2019-03-11T18:42:26.187Z,94372.50
2019-03-11T18:44:52.632Z,94373.88
2019-03-11T18:47:20.614Z,94389.86
2019-03-11T18:49:49.013Z,94393.70
2019-03-11T18:52:16.929Z,94393.98
2019-03-11T18:54:45.056Z,94380.30
2019-03-11T18:57:12.661Z,94391.01
2019-03-11T18:59:40.931Z,94393.98
2019-03-11T19:02:08.729Z,94389.20
2019-03-11T19:04:36.257Z,94375.02
2019-03-11T19:07:06.737Z,94374.23
2019-03-11T19:09:34.293Z,94383.44
2019-03-11T19:12:01.839Z,94391.33
2019-03-11T19:14:29.348Z,94395.05
2019-03-11T19:16:56.767Z,94398.77
2019-03-11T19:19:24.318Z,94385.40
2019-03-11T19:21:54.115Z,94379.91
2019-03-11T19:24:21.666Z,94377.70
2019-03-11T19:26:49.341Z,94381.65
2019-03-11T19:29:17.137Z,94383.03
2019-03-11T19:31:44.726Z,94378.17
2019-03-11T19:34:12.262Z,94378.66
2019-03-11T19:36:39.733Z,94378.27
2019-03-11T19:39:11.606Z,94377.60
2019-03-11T19:41:39.923Z,94367.35
2019-03-11T19:44:07.595Z,94362.54
2019-03-11T19:46:35.060Z,94361.69
2019-03-11T19:49:02.564Z,94366.23
2019-03-11T19:51:30.121Z,94359.36
2019-03-11T19:53:57.590Z,94365.19
2019-03-11T19:56:25.094Z,94375.09
2019-03-11T19:58:52.593Z,94372.67
2019-03-11T20:01:20.097Z,94370.31
2019-03-11T20:03:47.606Z,94378.05
2019-03-11T20:06:15.246Z,94385.03
2019-03-11T20:08:42.729Z,94368.06
2019-03-11T20:11:10.811Z,94354.23
2019-03-11T20:13:38.378Z,94362.13
2019-03-11T20:16:06.046Z,94351.19
2019-03-11T20:18:33.608Z,94347.84
2019-03-11T20:21:01.081Z,94346.13
2019-03-11T20:23:28.813Z,94347.42
2019-03-11T20:25:56.366Z,94341.41
2019-03-11T20:28:23.804Z,94328.28
2019-03-11T20:30:51.378Z,94340.00
2019-03-11T20:33:19.052Z,94349.47
2019-03-11T20:35:46.604Z,94345.71
2019-03-11T20:38:14.443Z,94351.36
2019-03-11T20:40:42.032Z,94345.32
2019-03-11T20:43:09.586Z,94343.88
2019-03-11T20:45:37.143Z,94355.47
2019-03-11T20:48:04.646Z,94353.23
2019-03-11T20:50:41.453Z,94354.50
2019-03-11T20:53:01.595Z,94354.81
2019-03-11T20:55:29.229Z,94356.31
2019-03-11T20:57:56.720Z,94371.97
2019-03-11T21:00:24.879Z,94371.34
2019-03-11T21:02:52.401Z,94354.58
2019-03-11T21:05:22.548Z,94355.55
2019-03-11T21:07:50.088Z,94360.05
2019-03-11T21:10:17.721Z,94360.56
2019-03-11T21:12:45.341Z,94366.05
2019-03-11T21:15:13.380Z,94356.64
2019-03-11T21:17:40.937Z,94340.88
2019-03-11T21:20:10.057Z,94342.03
2019-03-11T21:22:37.723Z,94347.09
2019-03-11T21:25:06.104Z,94350.84
2019-03-11T21:27:33.690Z,94348.73
2019-03-11T21:30:01.153Z,94353.52
2019-03-11T21:32:28.580Z,94356.94
2019-03-11T21:34:56.081Z,94356.17
2019-03-11T21:37:23.690Z,94363.84
2019-03-11T21:39:51.361Z,94370.91
2019-03-11T21:42:18.908Z,94369.11
2019-03-11T21:44:46.435Z,94376.91
2019-03-11T21:47:14.206Z,94372.15
2019-03-11T21:49:41.669Z,94375.81
2019-03-11T21:52:09.238Z,94385.34
2019-03-11T21:54:36.805Z,94368.52
2019-03-11T21:57:04.471Z,94371.57
2019-03-11T21:59:32.019Z,94368.33
2019-03-11T22:01:59.617Z,94373.64
2019-03-11T22:04:27.074Z,94381.49
2019-03-11T22:06:55.037Z,94383.56
2019-03-11T22:09:22.426Z,94377.67
2019-03-11T22:11:50.049Z,94392.33
2019-03-11T22:14:17.574Z,94391.58
2019-03-11T22:16:44.983Z,94381.23
2019-03-11T22:19:12.490Z,94384.39
2019-03-11T22:21:39.942Z,94389.81
2019-03-11T22:24:07.354Z,94396.23
2019-03-11T22:26:34.871Z,94387.12
2019-03-11T22:29:02.491Z,94388.06
2019-03-11T22:31:30.150Z,94380.66
2019-03-11T22:33:57.639Z,94385.46
2019-03-11T22:36:25.147Z,94386.48
2019-03-11T22:38:52.553Z,94383.22
2019-03-11T22:41:20.026Z,94379.33
2019-03-11T22:43:47.488Z,94379.24
2019-03-11T22:46:14.929Z,94379.86
2019-03-11T22:48:42.580Z,94377.03
2019-03-11T22:51:10.033Z,94370.45
2019-03-11T22:53:37.493Z,94378.75
2019-03-11T22:56:05.022Z,94390.22
2019-03-11T22:58:32.514Z,94395.55
2019-03-11T23:01:04.565Z,94401.36
2019-03-11T23:03:32.163Z,94394.92
2019-03-11T23:05:59.757Z,94397.50
2019-03-11T23:08:27.453Z,94400.00
2019-03-11T23:10:54.995Z,94407.23
2019-03-11T23:13:22.564Z,94405.66
2019-03-11T23:15:50.026Z,94403.84
2019-03-11T23:18:17.624Z,94416.88
2019-03-11T23:20:45.179Z,94415.16
2019-03-11T23:23:12.617Z,94414.59
2019-03-11T23:25:40.133Z,94416.24
2019-03-11T23:28:07.675Z,94420.75
2019-03-11T23:30:35.139Z,94429.95
2019-03-11T23:33:02.539Z,94420.87
2019-03-11T23:35:30.305Z,94412.67
2019-03-11T23:37:57.777Z,94419.61
2019-03-11T23:40:25.279Z,94432.32
2019-03-11T23:42:52.733Z,94430.90
2019-03-11T23:45:20.731Z,94430.94
2019-03-11T23:47:48.149Z,94432.72
2019-03-11T23:50:19.051Z,94423.90
2019-03-11T23:52:45.248Z,94425.83
2019-03-11T23:55:13.038Z,94415.64
2019-03-11T23:57:40.469Z,94423.47
